createdAt,value
2022-08-30T00:00:38.639Z,92.63
2022-08-30T00:01:38.637Z,92.67
2022-08-30T00:02:38.795Z,92.52
2022-08-30T00:03:38.727Z,91.85
2022-08-30T00:04:38.623Z,91.50
2022-08-30T00:05:38.596Z,91.61
2022-08-30T00:06:38.581Z,90.99
2022-08-30T00:07:38.578Z,90.99
2022-08-30T00:08:38.574Z,90.69
2022-08-30T00:09:38.576Z,90.69
2022-08-30T00:10:38.584Z,90.48
2022-08-30T00:11:38.593Z,90.79
2022-08-30T00:12:38.598Z,90.95
2022-08-30T00:13:38.543Z,90.44
2022-08-30T00:14:38.561Z,90.55
2022-08-30T00:15:38.579Z,91.16
2022-08-30T00:16:38.578Z,91.16
2022-08-30T00:17:38.518Z,91.16
2022-08-30T00:18:38.494Z,90.75
2022-08-30T00:19:38.482Z,90.44
2022-08-30T00:20:38.487Z,90.85
2022-08-30T00:21:38.490Z,90.24
2022-08-30T00:22:38.486Z,90.24
2022-08-30T00:23:38.451Z,90.69
2022-08-30T00:24:38.451Z,90.48
2022-08-30T00:25:38.443Z,90.95
2022-08-30T00:26:38.430Z,90.24
2022-08-30T00:27:38.428Z,89.73
2022-08-30T00:28:38.438Z,89.73
2022-08-30T00:29:38.419Z,89.63
2022-08-30T00:30:38.425Z,89.63
2022-08-30T00:31:38.484Z,90.55
2022-08-30T00:32:38.372Z,89.53
2022-08-30T00:33:38.379Z,90.55
2022-08-30T00:34:38.359Z,91.16
2022-08-30T00:35:38.366Z,89.83
2022-08-30T00:36:38.372Z,89.48
2022-08-30T00:37:38.340Z,89.63
2022-08-30T00:38:38.354Z,89.32
2022-08-30T00:39:38.321Z,90.34
2022-08-30T00:40:38.393Z,90.85
2022-08-30T00:41:38.318Z,91.77
2022-08-30T00:43:14.298Z,91.61
2022-08-30T00:43:39.316Z,90.75
2022-08-30T00:44:38.289Z,91.46
2022-08-30T00:45:38.271Z,90.85
2022-08-30T00:46:38.380Z,90.75
2022-08-30T00:47:38.266Z,90.99
2022-08-30T00:48:38.281Z,90.85
2022-08-30T00:49:38.240Z,91.05
2022-08-30T00:50:38.232Z,90.64
2022-08-30T00:51:38.255Z,90.55
2022-08-30T00:52:38.231Z,90.34
2022-08-30T00:53:38.213Z,90.64
2022-08-30T00:54:38.222Z,90.75
2022-08-30T00:55:39.054Z,90.64
2022-08-30T00:56:38.186Z,90.75
2022-08-30T00:57:38.201Z,90.85
2022-08-30T00:58:38.179Z,91.81
2022-08-30T00:59:38.176Z,92.77
2022-08-30T01:00:38.157Z,92.87
2022-08-30T01:01:38.242Z,93.73
2022-08-30T01:02:38.240Z,94.24
2022-08-30T01:03:38.222Z,93.73
2022-08-30T01:04:38.132Z,93.73
2022-08-30T01:05:38.129Z,93.52
2022-08-30T01:06:38.116Z,93.02
2022-08-30T01:07:38.108Z,92.81
2022-08-30T01:08:38.125Z,92.46
2022-08-30T01:09:38.123Z,92.05
2022-08-30T01:10:38.094Z,92.16
2022-08-30T01:11:38.075Z,91.75
2022-08-30T01:12:38.117Z,91.65
2022-08-30T01:13:38.083Z,91.65
2022-08-30T01:14:38.050Z,91.03
2022-08-30T01:15:38.056Z,91.03
2022-08-30T01:16:38.032Z,91.55
2022-08-30T01:17:38.031Z,91.85
2022-08-30T01:18:38.022Z,91.55
2022-08-30T01:19:38.034Z,92.97
2022-08-30T01:20:38.315Z,93.18
2022-08-30T01:21:37.996Z,93.48
2022-08-30T01:22:37.989Z,94.55
2022-08-30T01:23:38.352Z,94.90
2022-08-30T01:24:37.971Z,95.20
2022-08-30T01:25:37.990Z,96.02
2022-08-30T01:26:37.979Z,95.81
2022-08-30T01:27:37.948Z,96.37
2022-08-30T01:28:37.973Z,96.37
2022-08-30T01:29:37.933Z,96.02
2022-08-30T01:30:38.017Z,95.61
2022-08-30T01:31:37.912Z,95.51
2022-08-30T01:32:37.924Z,95.16
2022-08-30T01:33:37.895Z,95.51
2022-08-30T01:34:37.882Z,95.51
2022-08-30T01:35:37.873Z,95.72
2022-08-30T01:36:38.007Z,95.31
2022-08-30T01:37:38.915Z,95.00
2022-08-30T01:38:37.854Z,94.38
2022-08-30T01:39:37.860Z,93.77
2022-08-30T01:40:37.872Z,93.73
2022-08-30T01:41:37.846Z,93.63
2022-08-30T01:42:37.825Z,93.22
2022-08-30T01:43:37.812Z,92.81
2022-08-30T01:44:37.812Z,93.12
2022-08-30T01:45:37.811Z,94.24
2022-08-30T01:46:37.778Z,95.10
2022-08-30T01:47:37.926Z,95.72
2022-08-30T01:48:37.764Z,95.25
2022-08-30T01:49:37.761Z,95.65
2022-08-30T01:50:37.754Z,95.76
2022-08-30T01:51:37.750Z,96.27
2022-08-30T01:52:37.766Z,95.86
2022-08-30T01:53:37.754Z,95.76
2022-08-30T01:54:38.142Z,96.17
2022-08-30T01:55:37.716Z,96.37
2022-08-30T01:56:37.705Z,96.06
2022-08-30T01:57:37.697Z,96.27
2022-08-30T01:58:37.718Z,96.37
2022-08-30T01:59:37.678Z,96.27
2022-08-30T02:00:37.664Z,96.31
2022-08-30T02:01:37.694Z,95.86
2022-08-30T02:02:37.651Z,95.96
2022-08-30T02:03:37.690Z,96.42
2022-08-30T02:04:37.670Z,96.51
2022-08-30T02:05:37.636Z,96.72
2022-08-30T02:06:37.654Z,96.31
2022-08-30T02:07:38.264Z,96.47
2022-08-30T02:08:37.615Z,95.65
2022-08-30T02:09:37.591Z,96.37
2022-08-30T02:10:37.597Z,95.65
2022-08-30T02:11:37.583Z,96.21
2022-08-30T02:12:37.614Z,96.21
2022-08-30T02:13:37.567Z,96.42
2022-08-30T02:14:37.599Z,96.62
2022-08-30T02:15:41.451Z,97.49
2022-08-30T02:16:37.578Z,97.58
2022-08-30T02:17:37.537Z,97.69
2022-08-30T02:18:37.604Z,97.49
2022-08-30T02:19:37.520Z,97.69
2022-08-30T02:20:37.525Z,97.89
2022-08-30T02:21:37.508Z,98.40
2022-08-30T02:22:37.498Z,98.50
2022-08-30T02:23:37.485Z,98.61
2022-08-30T02:24:37.515Z,98.61
2022-08-30T02:25:37.498Z,98.61
2022-08-30T02:26:37.462Z,99.22
2022-08-30T02:27:37.452Z,98.20
2022-08-30T02:28:42.875Z,98.61
2022-08-30T02:29:38.433Z,98.50
2022-08-30T02:30:37.514Z,98.56
2022-08-30T02:31:37.448Z,98.15
2022-08-30T02:32:37.446Z,97.74
2022-08-30T02:33:37.414Z,97.24
2022-08-30T02:34:37.432Z,97.74
2022-08-30T02:35:37.393Z,96.51
2022-08-30T02:36:37.383Z,97.19
2022-08-30T02:37:37.383Z,95.70
2022-08-30T02:38:37.393Z,97.03
2022-08-30T02:39:37.359Z,97.74
2022-08-30T02:40:37.403Z,96.92
2022-08-30T02:41:37.339Z,98.61
2022-08-30T02:42:37.351Z,98.71
2022-08-30T02:43:37.327Z,98.56
2022-08-30T02:44:37.334Z,98.50
2022-08-30T02:45:37.328Z,98.05
2022-08-30T02:46:37.300Z,97.44
2022-08-30T02:47:37.305Z,96.92
2022-08-30T02:48:37.295Z,97.24
2022-08-30T02:49:37.304Z,97.54
2022-08-30T02:50:37.281Z,97.44
2022-08-30T02:51:37.283Z,96.51
2022-08-30T02:52:37.274Z,96.01
2022-08-30T02:53:37.255Z,96.01
2022-08-30T02:54:37.239Z,95.90
2022-08-30T02:55:37.833Z,95.70
2022-08-30T02:56:37.222Z,96.51
2022-08-30T02:57:37.216Z,95.90
2022-08-30T02:58:37.213Z,95.86
2022-08-30T02:59:37.195Z,96.42
2022-08-30T03:00:37.188Z,97.54
2022-08-30T03:01:37.306Z,97.44
2022-08-30T03:02:37.174Z,97.64
2022-08-30T03:03:37.252Z,97.54
2022-08-30T03:04:37.163Z,97.38
2022-08-30T03:05:39.708Z,97.38
2022-08-30T03:06:37.188Z,98.30
2022-08-30T03:07:37.162Z,98.81
2022-08-30T03:08:37.143Z,98.71
2022-08-30T03:09:37.143Z,98.50
2022-08-30T03:10:37.116Z,98.71
2022-08-30T03:11:37.109Z,99.22
2022-08-30T03:12:37.124Z,98.96
2022-08-30T03:13:37.114Z,99.11
2022-08-30T03:14:37.076Z,98.71
2022-08-30T03:15:37.075Z,98.96
2022-08-30T03:16:37.098Z,99.11
2022-08-30T03:17:37.061Z,99.02
2022-08-30T03:18:37.062Z,98.61
2022-08-30T03:19:37.073Z,98.71
2022-08-30T03:20:37.040Z,98.91
2022-08-30T03:21:37.059Z,98.91
2022-08-30T03:22:37.025Z,98.10
2022-08-30T03:23:37.045Z,98.20
2022-08-30T03:24:37.007Z,97.99
2022-08-30T03:25:37.010Z,97.69
2022-08-30T03:26:36.996Z,97.38
2022-08-30T03:27:37.001Z,97.49
2022-08-30T03:28:36.985Z,97.79
2022-08-30T03:29:36.965Z,96.46
2022-08-30T03:30:36.959Z,96.87
2022-08-30T03:31:37.704Z,97.38
2022-08-30T03:32:36.954Z,97.38
2022-08-30T03:33:36.975Z,97.49
2022-08-30T03:34:37.004Z,97.94
2022-08-30T03:35:36.923Z,98.75
2022-08-30T03:36:36.914Z,98.96
2022-08-30T03:37:36.905Z,99.16
2022-08-30T03:38:36.922Z,99.98
2022-08-30T03:39:36.888Z,99.68
2022-08-30T03:40:36.968Z,99.68
2022-08-30T03:41:36.874Z,99.78
2022-08-30T03:42:36.865Z,98.96
2022-08-30T03:43:36.884Z,99.78
2022-08-30T03:44:36.869Z,99.82
2022-08-30T03:45:36.918Z,99.93
2022-08-30T03:46:37.661Z,99.72
2022-08-30T03:47:36.829Z,99.93
2022-08-30T03:48:36.825Z,99.93
2022-08-30T03:49:36.820Z,99.82
2022-08-30T03:50:36.814Z,99.99
2022-08-30T03:51:36.815Z,99.99
2022-08-30T03:52:36.790Z,99.99
2022-08-30T03:53:36.789Z,99.82
2022-08-30T03:54:36.770Z,99.99
2022-08-30T03:55:36.759Z,99.99
2022-08-30T03:56:36.771Z,99.99
2022-08-30T03:57:36.774Z,99.99
2022-08-30T03:58:36.763Z,99.99
2022-08-30T03:59:36.750Z,99.99
2022-08-30T04:00:36.815Z,99.99
2022-08-30T04:01:36.745Z,99.99
2022-08-30T04:02:36.795Z,99.99
2022-08-30T04:03:36.708Z,99.99
2022-08-30T04:04:36.694Z,99.99
2022-08-30T04:05:36.762Z,99.99
2022-08-30T04:06:36.701Z,99.99
2022-08-30T04:07:36.667Z,99.99
2022-08-30T04:08:36.657Z,99.99
2022-08-30T04:09:36.654Z,99.99
2022-08-30T04:10:36.639Z,99.99
2022-08-30T04:11:36.665Z,99.99
2022-08-30T04:12:38.492Z,99.99
2022-08-30T04:13:36.621Z,99.99
2022-08-30T04:14:36.609Z,99.99
2022-08-30T04:15:36.617Z,99.99
2022-08-30T04:16:36.641Z,99.99
2022-08-30T04:17:36.607Z,99.99
2022-08-30T04:18:36.596Z,99.99
2022-08-30T04:19:36.576Z,99.99
2022-08-30T04:20:36.578Z,99.99
2022-08-30T04:21:42.706Z,99.99
2022-08-30T04:22:37.580Z,99.99
2022-08-30T04:23:36.534Z,99.62
2022-08-30T04:24:36.518Z,99.72
2022-08-30T04:25:36.517Z,99.98
2022-08-30T04:26:36.508Z,99.21
2022-08-30T04:27:36.519Z,99.41
2022-08-30T04:28:36.541Z,98.75
2022-08-30T04:29:36.518Z,98.65
2022-08-30T04:30:36.494Z,98.75
2022-08-30T04:31:36.550Z,98.55
2022-08-30T04:32:36.473Z,98.45
2022-08-30T04:33:36.467Z,99.06
2022-08-30T04:34:36.474Z,98.75
2022-08-30T04:35:36.470Z,99.02
2022-08-30T04:36:36.444Z,98.65
2022-08-30T04:37:36.429Z,97.49
2022-08-30T04:38:36.421Z,97.49
2022-08-30T04:39:36.442Z,97.69
2022-08-30T04:40:36.492Z,96.36
2022-08-30T04:41:36.396Z,96.36
2022-08-30T04:42:36.393Z,95.75
2022-08-30T04:43:36.394Z,96.36
2022-08-30T04:44:36.368Z,95.50
2022-08-30T04:45:36.467Z,95.29
2022-08-30T04:46:36.363Z,95.19
2022-08-30T04:47:37.375Z,95.29
2022-08-30T04:48:36.340Z,95.29
2022-08-30T04:49:36.333Z,94.43
2022-08-30T04:50:36.330Z,94.64
2022-08-30T04:51:36.318Z,94.12
2022-08-30T04:52:36.312Z,94.23
2022-08-30T04:53:36.317Z,93.31
2022-08-30T04:54:36.345Z,92.90
2022-08-30T04:55:36.296Z,93.26
2022-08-30T04:56:36.282Z,92.76
2022-08-30T04:57:36.289Z,93.16
2022-08-30T04:58:36.264Z,93.71
2022-08-30T04:59:36.280Z,95.15
2022-08-30T05:00:36.300Z,95.50
2022-08-30T05:01:45.678Z,96.26
2022-08-30T05:02:37.396Z,97.28
2022-08-30T05:03:36.223Z,96.42
2022-08-30T05:04:36.237Z,96.42
2022-08-30T05:05:36.210Z,96.42
2022-08-30T05:06:36.197Z,96.51
2022-08-30T05:07:36.219Z,96.11
2022-08-30T05:08:36.185Z,95.96
2022-08-30T05:09:36.204Z,95.76
2022-08-30T05:10:36.167Z,95.35
2022-08-30T05:11:36.179Z,95.31
2022-08-30T05:12:36.153Z,96.06
2022-08-30T05:13:36.995Z,96.92
2022-08-30T05:14:36.147Z,96.62
2022-08-30T05:15:36.142Z,97.08
2022-08-30T05:16:36.212Z,96.68
2022-08-30T05:17:36.123Z,96.33
2022-08-30T05:18:36.117Z,96.27
2022-08-30T05:19:36.134Z,97.03
2022-08-30T05:20:36.094Z,96.97
2022-08-30T05:21:36.077Z,96.42
2022-08-30T05:22:36.077Z,96.62
2022-08-30T05:23:36.101Z,96.83
2022-08-30T05:24:36.059Z,96.01
2022-08-30T05:25:36.076Z,95.96
2022-08-30T05:26:36.083Z,95.61
2022-08-30T05:27:37.204Z,95.06
2022-08-30T05:28:36.036Z,91.56
2022-08-30T05:29:36.025Z,89.18
2022-08-30T05:30:36.051Z,88.83
2022-08-30T05:31:36.077Z,86.92
2022-08-30T05:32:35.996Z,86.07
2022-08-30T05:33:38.900Z,86.07
2022-08-30T05:34:35.978Z,86.21
2022-08-30T05:35:35.969Z,86.71
2022-08-30T05:36:35.987Z,87.32
2022-08-30T05:37:35.991Z,85.55
2022-08-30T05:38:35.957Z,86.00
2022-08-30T05:39:45.145Z,86.69
2022-08-30T05:40:37.028Z,88.22
2022-08-30T05:41:36.881Z,88.67
2022-08-30T05:42:35.943Z,88.83
2022-08-30T05:43:35.914Z,89.14
2022-08-30T05:44:35.926Z,89.79
2022-08-30T05:45:35.894Z,89.00
2022-08-30T05:46:35.896Z,89.09
2022-08-30T05:47:35.931Z,88.08
2022-08-30T05:48:35.882Z,88.65
2022-08-30T05:49:35.866Z,87.32
2022-08-30T05:50:39.438Z,87.89
2022-08-30T05:51:35.869Z,87.43
2022-08-30T05:52:36.871Z,89.30
2022-08-30T05:53:35.861Z,89.40
2022-08-30T05:54:35.844Z,89.40
2022-08-30T05:55:35.820Z,90.40
2022-08-30T05:56:35.816Z,91.11
2022-08-30T05:57:35.799Z,92.54
2022-08-30T05:58:35.795Z,92.68
2022-08-30T05:59:35.819Z,93.29
2022-08-30T06:00:35.775Z,93.55
2022-08-30T06:01:35.833Z,92.89
2022-08-30T06:02:35.790Z,93.45
2022-08-30T06:03:35.751Z,93.60
2022-08-30T06:04:35.746Z,95.03
2022-08-30T06:05:35.791Z,94.82
2022-08-30T06:06:35.726Z,94.21
2022-08-30T06:07:35.720Z,94.11
2022-08-30T06:08:35.715Z,94.92
2022-08-30T06:09:35.705Z,94.72
2022-08-30T06:10:35.700Z,94.11
2022-08-30T06:11:35.718Z,94.21
2022-08-30T06:12:35.696Z,93.70
2022-08-30T06:13:35.665Z,93.50
2022-08-30T06:14:35.658Z,93.60
2022-08-30T06:15:35.649Z,93.40
2022-08-30T06:16:35.747Z,93.40
2022-08-30T06:17:35.737Z,92.74
2022-08-30T06:18:35.627Z,92.80
2022-08-30T06:19:35.627Z,89.97
2022-08-30T06:20:35.617Z,87.00
2022-08-30T06:21:35.612Z,84.38
2022-08-30T06:22:35.600Z,84.24
2022-08-30T06:23:35.615Z,82.31
2022-08-30T06:24:54.022Z,82.58
2022-08-30T06:25:42.174Z,82.28
2022-08-30T06:26:36.574Z,80.88
2022-08-30T06:27:35.611Z,81.93
2022-08-30T06:28:35.551Z,82.10
2022-08-30T06:29:35.561Z,80.36
2022-08-30T06:30:35.537Z,78.10
2022-08-30T06:31:35.545Z,77.32
2022-08-30T06:32:35.530Z,74.83
2022-08-30T06:33:35.500Z,74.56
2022-08-30T06:34:35.845Z,74.87
2022-08-30T06:35:46.814Z,71.94
2022-08-30T06:36:36.478Z,72.74
2022-08-30T06:37:35.465Z,70.76
2022-08-30T06:38:35.461Z,70.83
2022-08-30T06:39:35.509Z,71.67
2022-08-30T06:40:35.521Z,74.22
2022-08-30T06:41:35.429Z,77.26
2022-08-30T06:42:35.422Z,77.60
2022-08-30T06:43:35.410Z,80.24
2022-08-30T06:44:35.408Z,81.25
2022-08-30T06:45:35.411Z,81.49
2022-08-30T06:46:35.609Z,83.80
2022-08-30T06:47:35.383Z,85.36
2022-08-30T06:48:35.375Z,84.20
2022-08-30T06:49:35.374Z,84.97
2022-08-30T06:50:35.359Z,84.53
2022-08-30T06:51:35.354Z,82.90
2022-08-30T06:52:35.371Z,82.70
2022-08-30T06:53:35.337Z,83.15
2022-08-30T06:54:35.326Z,84.06
2022-08-30T06:55:35.317Z,84.47
2022-08-30T06:56:36.177Z,84.06
2022-08-30T06:57:35.321Z,84.22
2022-08-30T06:58:35.314Z,84.53
2022-08-30T07:01:03.405Z,83.47
2022-08-30T07:02:03.985Z,83.47
2022-08-30T07:03:03.642Z,79.41
2022-08-30T07:04:04.144Z,79.52
2022-08-30T07:05:02.225Z,80.32
2022-08-30T07:06:02.219Z,79.52
2022-08-30T07:07:02.226Z,80.93
2022-08-30T07:08:02.206Z,79.72
2022-08-30T07:09:02.198Z,79.32
2022-08-30T07:10:02.233Z,81.13
2022-08-30T07:11:02.176Z,77.72
2022-08-30T07:12:02.228Z,75.06
2022-08-30T07:13:02.170Z,76.34
2022-08-30T07:14:02.157Z,76.44
2022-08-30T07:15:02.146Z,77.86
2022-08-30T07:16:02.223Z,76.71
2022-08-30T07:17:02.149Z,75.83
2022-08-30T07:18:02.118Z,73.14
2022-08-30T07:19:02.137Z,71.16
2022-08-30T07:20:02.102Z,73.52
2022-08-30T07:21:02.090Z,74.32
2022-08-30T07:22:02.095Z,75.33
2022-08-30T07:23:02.080Z,73.98
2022-08-30T07:24:02.074Z,72.97
2022-08-30T07:25:02.092Z,74.22
2022-08-30T07:26:02.067Z,73.65
2022-08-30T07:27:02.052Z,72.00
2022-08-30T07:28:02.041Z,70.70
2022-08-30T07:29:02.032Z,73.24
2022-08-30T07:30:02.074Z,71.87
2022-08-30T07:31:02.074Z,72.88
2022-08-30T07:32:02.002Z,73.01
2022-08-30T07:33:02.005Z,73.82
2022-08-30T07:34:01.979Z,73.78
2022-08-30T07:35:01.982Z,74.35
2022-08-30T07:36:01.968Z,77.86
2022-08-30T07:37:01.988Z,76.31
2022-08-30T07:38:01.955Z,75.30
2022-08-30T07:39:01.946Z,74.96
2022-08-30T07:40:01.984Z,73.48
2022-08-30T07:41:01.922Z,72.81
2022-08-30T07:42:01.937Z,70.59
2022-08-30T07:43:02.011Z,70.56
2022-08-30T07:44:01.897Z,69.25
2022-08-30T07:45:01.900Z,68.92
2022-08-30T07:46:01.950Z,70.53
2022-08-30T07:47:01.893Z,68.82
2022-08-30T07:48:01.887Z,68.59
2022-08-30T07:49:01.921Z,68.72
2022-08-30T07:50:01.854Z,70.26
2022-08-30T07:51:05.188Z,69.12
2022-08-30T07:52:01.832Z,70.23
2022-08-30T07:53:01.885Z,70.29
2022-08-30T07:54:01.830Z,72.94
2022-08-30T07:55:01.804Z,73.32
2022-08-30T07:56:01.797Z,73.82
2022-08-30T07:57:01.790Z,74.82
2022-08-30T07:59:01.780Z,74.62
2022-08-30T08:00:01.784Z,74.22
2022-08-30T08:01:01.750Z,73.98
2022-08-30T08:02:01.821Z,72.57
2022-08-30T08:03:01.812Z,70.89
2022-08-30T08:04:01.766Z,68.62
2022-08-30T08:05:01.736Z,66.82
2022-08-30T08:06:01.729Z,66.46
2022-08-30T08:07:01.749Z,64.12
2022-08-30T08:08:01.711Z,63.42
2022-08-30T08:09:01.709Z,61.16
2022-08-30T08:10:01.711Z,62.53
2022-08-30T08:11:01.680Z,60.41
2022-08-30T08:12:01.725Z,59.58
2022-08-30T08:13:01.672Z,61.13
2022-08-30T08:14:01.685Z,60.83
2022-08-30T08:15:04.162Z,59.48
2022-08-30T08:16:02.729Z,59.08
2022-08-30T08:17:01.620Z,59.38
2022-08-30T08:18:01.639Z,58.45
2022-08-30T08:19:01.619Z,58.41
2022-08-30T08:20:01.603Z,62.04
2022-08-30T08:21:01.594Z,61.19
2022-08-30T08:22:19.944Z,60.93
2022-08-30T08:23:02.617Z,59.01
2022-08-30T08:24:01.568Z,60.89
2022-08-30T08:25:01.565Z,61.52
2022-08-30T08:26:01.573Z,63.49
2022-08-30T08:27:01.544Z,60.80
2022-08-30T08:28:01.547Z,60.53
2022-08-30T08:29:01.544Z,58.65
2022-08-30T08:30:01.517Z,57.10
2022-08-30T08:31:01.535Z,56.33
2022-08-30T08:32:01.496Z,56.96
2022-08-30T08:33:01.565Z,56.70
2022-08-30T08:35:01.472Z,56.46
2022-08-30T08:36:01.803Z,55.83
2022-08-30T08:37:01.462Z,55.61
2022-08-30T08:38:01.448Z,56.40
2022-08-30T08:39:01.448Z,56.08
2022-08-30T08:40:01.491Z,56.21
2022-08-30T08:41:01.428Z,59.27
2022-08-30T08:42:01.411Z,61.09
2022-08-30T08:43:01.409Z,59.70
2022-08-30T08:44:01.394Z,57.93
2022-08-30T08:45:01.394Z,58.91
2022-08-30T08:46:01.431Z,58.92
2022-08-30T08:47:01.386Z,56.57
2022-08-30T08:48:01.419Z,57.18
2022-08-30T08:49:01.367Z,58.76
2022-08-30T08:50:01.370Z,59.53
2022-08-30T08:51:02.789Z,59.44
2022-08-30T08:52:01.360Z,57.39
2022-08-30T08:53:01.328Z,58.14
2022-08-30T08:54:01.339Z,59.27
2022-08-30T08:55:01.318Z,59.47
2022-08-30T08:56:01.316Z,57.81
2022-08-30T08:57:01.330Z,57.26
2022-08-30T08:58:01.290Z,53.91
2022-08-30T08:59:01.290Z,54.19
2022-08-30T09:00:01.277Z,54.56
2022-08-30T09:01:01.273Z,55.55
2022-08-30T09:02:01.343Z,56.38
2022-08-30T09:03:01.259Z,56.01
2022-08-30T09:04:01.241Z,54.59
2022-08-30T09:05:01.267Z,57.11
2022-08-30T09:06:01.217Z,56.84
2022-08-30T09:07:01.219Z,56.51
2022-08-30T09:08:01.223Z,56.71
2022-08-30T09:09:01.201Z,57.28
2022-08-30T09:10:01.186Z,56.84
2022-08-30T09:11:01.182Z,57.67
2022-08-30T09:12:01.177Z,58.04
2022-08-30T09:13:02.291Z,56.68
2022-08-30T09:14:01.161Z,56.41
2022-08-30T09:15:01.154Z,57.34
2022-08-30T09:16:01.191Z,57.11
2022-08-30T09:17:02.649Z,56.76
2022-08-30T09:18:01.130Z,56.93
2022-08-30T09:19:01.156Z,53.64
2022-08-30T09:20:01.121Z,56.56
2022-08-30T09:21:01.118Z,54.28
2022-08-30T09:22:01.099Z,53.86
2022-08-30T09:23:01.091Z,53.24
2022-08-30T09:24:01.090Z,53.71
2022-08-30T09:25:01.108Z,52.51
2022-08-30T09:26:01.078Z,54.60
2022-08-30T09:27:01.072Z,52.02
2022-08-30T09:28:01.071Z,53.36
2022-08-30T09:29:01.117Z,53.06
2022-08-30T09:30:01.064Z,53.99
2022-08-30T09:31:01.101Z,54.46
2022-08-30T09:32:22.454Z,52.64
2022-08-30T09:33:02.019Z,52.37
2022-08-30T09:34:01.035Z,54.11
2022-08-30T09:35:01.027Z,54.08
2022-08-30T09:36:00.994Z,53.46
2022-08-30T09:37:00.988Z,53.91
2022-08-30T09:38:00.972Z,50.57
2022-08-30T09:39:00.970Z,52.27
2022-08-30T09:40:01.076Z,52.27
2022-08-30T09:41:00.965Z,52.62
2022-08-30T09:42:00.947Z,53.39
2022-08-30T09:43:00.937Z,51.47
2022-08-30T09:44:00.926Z,49.95
2022-08-30T09:45:00.937Z,49.53
2022-08-30T09:46:01.007Z,49.98
2022-08-30T09:47:00.914Z,47.75
2022-08-30T09:48:00.895Z,47.95
2022-08-30T09:49:00.895Z,49.07
2022-08-30T09:50:00.876Z,49.66
2022-08-30T09:51:00.884Z,49.02
2022-08-30T09:52:00.910Z,48.90
2022-08-30T09:53:00.879Z,48.59
2022-08-30T09:54:17.037Z,52.57
2022-08-30T09:55:01.839Z,50.73
2022-08-30T09:56:00.832Z,51.72
2022-08-30T09:57:00.831Z,51.27
2022-08-30T09:58:00.840Z,52.81
2022-08-30T09:59:00.813Z,53.94
2022-08-30T10:00:00.804Z,53.41
2022-08-30T10:01:00.829Z,51.65
2022-08-30T10:02:00.784Z,51.37
2022-08-30T10:03:00.782Z,49.26
2022-08-30T10:04:00.795Z,48.47
2022-08-30T10:05:00.773Z,47.03
2022-08-30T10:06:00.753Z,47.97
2022-08-30T10:07:00.743Z,49.76
2022-08-30T10:08:00.737Z,50.82
2022-08-30T10:09:00.747Z,50.35
2022-08-30T10:10:00.743Z,50.30
2022-08-30T10:11:00.720Z,50.25
2022-08-30T10:12:00.709Z,49.71
2022-08-30T10:13:00.701Z,48.69
2022-08-30T10:14:00.696Z,48.37
2022-08-30T10:15:00.705Z,46.66
2022-08-30T10:16:00.687Z,47.31
2022-08-30T10:17:00.661Z,47.97
2022-08-30T10:18:00.655Z,47.16
2022-08-30T10:19:00.647Z,46.36
2022-08-30T10:20:00.665Z,46.48
2022-08-30T10:21:00.631Z,48.17
2022-08-30T10:22:00.620Z,47.57
2022-08-30T10:23:00.631Z,46.02
2022-08-30T10:24:00.605Z,46.38
2022-08-30T10:25:00.599Z,46.38
2022-08-30T10:26:00.591Z,43.01
2022-08-30T10:27:00.580Z,44.77
2022-08-30T10:28:00.686Z,44.25
2022-08-30T10:29:00.566Z,45.92
2022-08-30T10:30:00.558Z,46.38
2022-08-30T10:31:00.549Z,47.42
2022-08-30T10:32:00.548Z,48.29
2022-08-30T10:33:00.551Z,46.31
2022-08-30T10:34:00.517Z,47.34
2022-08-30T10:35:00.511Z,45.78
2022-08-30T10:36:00.509Z,45.61
2022-08-30T10:37:00.493Z,45.86
2022-08-30T10:38:00.536Z,44.95
2022-08-30T10:39:00.509Z,42.92
2022-08-30T10:40:00.525Z,43.82
2022-08-30T10:41:00.489Z,42.41
2022-08-30T10:42:00.500Z,43.42
2022-08-30T10:43:00.453Z,42.94
2022-08-30T10:44:00.443Z,44.99
2022-08-30T10:45:00.459Z,43.78
2022-08-30T10:46:00.437Z,42.66
2022-08-30T10:47:00.426Z,43.54
2022-08-30T10:48:00.414Z,43.44
2022-08-30T10:49:00.434Z,43.04
2022-08-30T10:50:00.397Z,44.33
2022-08-30T10:51:00.385Z,42.85
2022-08-30T10:52:00.389Z,42.96
2022-08-30T10:53:00.375Z,44.45
2022-08-30T10:54:00.417Z,42.96
2022-08-30T10:55:00.591Z,41.75
2022-08-30T10:56:00.346Z,41.33
2022-08-30T10:57:00.446Z,41.91
2022-08-30T10:58:00.334Z,40.70
2022-08-30T10:59:00.321Z,42.03
2022-08-30T11:00:00.346Z,42.90
2022-08-30T11:01:00.345Z,41.67
2022-08-30T11:02:00.307Z,41.20
2022-08-30T11:03:00.292Z,43.02
2022-08-30T11:04:00.286Z,41.73
2022-08-30T11:05:00.746Z,42.82
2022-08-30T11:06:00.296Z,40.55
2022-08-30T11:07:00.301Z,42.71
2022-08-30T11:08:00.253Z,43.14
2022-08-30T11:09:00.262Z,41.33
2022-08-30T11:10:00.240Z,42.63
2022-08-30T11:11:00.229Z,40.78
2022-08-30T11:12:00.288Z,43.01
2022-08-30T11:13:00.687Z,41.58
2022-08-30T11:14:03.604Z,42.09
2022-08-30T11:15:01.191Z,41.52
2022-08-30T11:16:00.832Z,42.01
2022-08-30T11:17:00.186Z,42.47
2022-08-30T11:18:00.179Z,41.77
2022-08-30T11:19:00.164Z,42.19
2022-08-30T11:20:00.178Z,43.06
2022-08-30T11:21:00.170Z,43.00
2022-08-30T11:22:00.144Z,40.86
2022-08-30T11:23:00.163Z,39.06
2022-08-30T11:24:00.120Z,38.75
2022-08-30T11:25:00.136Z,38.41
2022-08-30T11:26:00.136Z,39.40
2022-08-30T11:27:00.159Z,40.60
2022-08-30T11:28:00.106Z,40.15
2022-08-30T11:29:00.162Z,42.15
2022-08-30T11:30:00.078Z,40.25
2022-08-30T11:31:00.080Z,42.38
2022-08-30T11:32:00.106Z,40.37
2022-08-30T11:33:00.059Z,39.22
2022-08-30T11:34:01.001Z,37.32
2022-08-30T11:35:00.046Z,37.64
2022-08-30T11:36:00.027Z,39.03
2022-08-30T11:37:00.062Z,39.37
2022-08-30T11:38:00.051Z,41.12
2022-08-30T11:39:00.011Z,40.01
2022-08-30T11:40:03.782Z,40.68
2022-08-30T11:41:00.015Z,40.56
2022-08-30T11:42:00.003Z,41.20
2022-08-30T11:43:00.039Z,39.43
2022-08-30T11:43:59.976Z,40.55
2022-08-30T11:44:59.974Z,40.17
2022-08-30T11:45:59.958Z,40.42
2022-08-30T11:46:59.941Z,41.00
2022-08-30T11:48:00.089Z,41.87
2022-08-30T11:48:59.919Z,40.42
2022-08-30T11:49:59.931Z,40.80
2022-08-30T11:50:59.902Z,38.78
2022-08-30T11:52:26.731Z,39.24
2022-08-30T11:53:01.109Z,37.38
2022-08-30T11:53:59.881Z,37.60
2022-08-30T11:54:59.897Z,39.95
2022-08-30T11:55:59.897Z,38.31
2022-08-30T11:56:59.871Z,37.49
2022-08-30T11:57:59.855Z,37.23
2022-08-30T11:58:59.846Z,37.30
2022-08-30T11:59:59.832Z,36.90
2022-08-30T12:00:59.874Z,37.45
2022-08-30T12:01:59.895Z,39.42
2022-08-30T12:02:59.932Z,38.90
2022-08-30T12:03:59.801Z,38.62
2022-08-30T12:04:59.785Z,38.51
2022-08-30T12:05:59.940Z,37.41
2022-08-30T12:06:59.775Z,38.96
2022-08-30T12:07:59.779Z,38.13
2022-08-30T12:09:02.350Z,37.34
2022-08-30T12:09:59.758Z,38.43
2022-08-30T12:10:59.788Z,39.67
2022-08-30T12:11:59.748Z,39.29
2022-08-30T12:12:59.743Z,40.74
2022-08-30T12:13:59.743Z,42.33
2022-08-30T12:14:59.721Z,40.62
2022-08-30T12:15:59.704Z,40.36
2022-08-30T12:16:59.807Z,41.36
2022-08-30T12:17:59.699Z,41.06
2022-08-30T12:18:59.678Z,40.47
2022-08-30T12:19:59.677Z,40.47
2022-08-30T12:20:59.656Z,39.87
2022-08-30T12:21:59.671Z,41.67
2022-08-30T12:22:59.677Z,41.39
2022-08-30T12:23:59.641Z,40.47
2022-08-30T12:24:59.649Z,40.55
2022-08-30T12:25:59.623Z,41.52
2022-08-30T12:26:59.718Z,40.19
2022-08-30T12:28:02.059Z,38.88
2022-08-30T12:28:59.599Z,39.46
2022-08-30T12:29:59.600Z,39.32
2022-08-30T12:30:59.593Z,38.39
2022-08-30T12:31:59.599Z,37.47
2022-08-30T12:32:59.598Z,35.20
2022-08-30T12:34:00.727Z,37.82
2022-08-30T12:34:59.553Z,37.52
2022-08-30T12:35:59.770Z,36.44
2022-08-30T12:36:59.549Z,36.83
2022-08-30T12:37:59.530Z,37.30
2022-08-30T12:39:02.561Z,38.14
2022-08-30T12:40:00.577Z,35.58
2022-08-30T12:40:59.515Z,35.69
2022-08-30T12:41:59.511Z,37.27
2022-08-30T12:42:59.536Z,36.99
2022-08-30T12:43:59.499Z,36.12
2022-08-30T12:44:59.495Z,36.68
2022-08-30T12:46:01.026Z,35.53
2022-08-30T12:47:00.457Z,37.52
2022-08-30T12:47:59.452Z,36.61
2022-08-30T12:48:59.467Z,36.70
2022-08-30T12:49:59.442Z,36.11
2022-08-30T12:50:59.425Z,37.23
2022-08-30T12:51:59.415Z,37.70
2022-08-30T12:52:59.416Z,37.43
2022-08-30T12:53:59.400Z,37.51
2022-08-30T12:54:59.415Z,37.60
2022-08-30T12:55:59.394Z,38.65